createdAt,value
2018-05-21T00:00:16.117Z,0
2018-05-21T00:01:16.655Z,0
2018-05-21T00:02:16.414Z,0
2018-05-21T00:03:16.448Z,0
2018-05-21T00:04:16.720Z,0
2018-05-21T00:05:16.229Z,0
2018-05-21T00:06:16.765Z,0
2018-05-21T00:07:16.280Z,0
2018-05-21T00:08:16.366Z,0
2018-05-21T00:09:16.582Z,0
2018-05-21T00:10:16.853Z,0
2018-05-21T00:11:16.877Z,0
2018-05-21T00:12:16.660Z,0
2018-05-21T00:13:16.729Z,0
2018-05-21T00:14:17.027Z,0
2018-05-21T00:15:16.714Z,0
2018-05-21T00:16:16.485Z,0
2018-05-21T00:17:16.762Z,0
2018-05-21T00:18:17.060Z,0
2018-05-21T00:19:16.805Z,0
2018-05-21T00:20:17.081Z,0
2018-05-21T00:21:16.844Z,0
2018-05-21T00:22:16.474Z,0
2018-05-21T00:23:16.896Z,0
2018-05-21T00:24:16.931Z,0
2018-05-21T00:25:16.988Z,0
2018-05-21T00:26:16.714Z,0
2018-05-21T00:27:17.230Z,0
2018-05-21T00:28:17.316Z,0
2018-05-21T00:29:17.277Z,0
2018-05-21T00:30:17.066Z,0
2018-05-21T00:31:17.080Z,0
2018-05-21T00:32:17.343Z,0
2018-05-21T00:33:17.364Z,0
2018-05-21T00:34:17.170Z,0
2018-05-21T00:35:17.423Z,0
2018-05-21T00:36:17.234Z,0
2018-05-21T00:37:17.454Z,0
2018-05-21T00:38:17.500Z,0
2018-05-21T00:39:17.508Z,0
2018-05-21T00:40:17.274Z,0
2018-05-21T00:41:17.043Z,0
2018-05-21T00:42:17.324Z,0
2018-05-21T00:43:17.386Z,0
2018-05-21T00:44:17.630Z,0
2018-05-21T00:45:17.386Z,0
2018-05-21T00:46:17.408Z,0
2018-05-21T00:47:17.686Z,0
2018-05-21T00:48:17.702Z,0
2018-05-21T00:49:17.719Z,0
2018-05-21T00:50:17.852Z,0
2018-05-21T00:51:17.784Z,0
2018-05-21T00:52:17.790Z,0
2018-05-21T00:53:17.818Z,0
2018-05-21T00:54:17.584Z,0
2018-05-21T00:55:17.859Z,0
2018-05-21T00:56:17.878Z,0
2018-05-21T00:57:17.653Z,0
2018-05-21T00:58:17.726Z,0
2018-05-21T00:59:17.692Z,0
2018-05-21T01:00:17.960Z,0
2018-05-21T01:01:17.737Z,0
2018-05-21T01:02:17.767Z,0
2018-05-21T01:03:18.028Z,0
2018-05-21T01:04:18.059Z,0
2018-05-21T01:05:18.077Z,0
2018-05-21T01:06:17.826Z,0
2018-05-21T01:07:17.847Z,0
2018-05-21T01:08:17.870Z,0
2018-05-21T01:09:17.884Z,0
2018-05-21T01:10:17.910Z,0
2018-05-21T01:11:18.208Z,0
2018-05-21T01:12:18.231Z,0
2018-05-21T01:13:18.300Z,0
2018-05-21T01:14:18.024Z,0
2018-05-21T01:15:17.781Z,0
2018-05-21T01:16:18.312Z,0
2018-05-21T01:17:18.340Z,0
2018-05-21T01:18:18.121Z,0
2018-05-21T01:19:17.872Z,0
2018-05-21T01:20:18.399Z,0
2018-05-21T01:21:18.427Z,0
2018-05-21T01:22:18.198Z,0
2018-05-21T01:23:18.209Z,0
2018-05-21T01:24:18.500Z,0
2018-05-21T01:25:18.003Z,0
2018-05-21T01:26:18.372Z,0
2018-05-21T01:27:18.565Z,0
2018-05-21T01:28:18.370Z,0
2018-05-21T01:29:18.600Z,0
2018-05-21T01:30:18.368Z,0
2018-05-21T01:31:18.397Z,0
2018-05-21T01:32:18.158Z,0
2018-05-21T01:33:18.787Z,0
2018-05-21T01:34:18.709Z,0
2018-05-21T01:35:18.491Z,0
2018-05-21T01:36:18.510Z,0
2018-05-21T01:37:18.268Z,0
2018-05-21T01:38:18.817Z,0
2018-05-21T01:39:18.821Z,0
2018-05-21T01:40:18.615Z,0
2018-05-21T01:41:18.369Z,0
2018-05-21T01:42:18.888Z,0
2018-05-21T01:43:18.701Z,0
2018-05-21T01:44:18.422Z,0
2018-05-21T01:45:18.694Z,0
2018-05-21T01:46:18.461Z,0
2018-05-21T01:47:18.491Z,0
2018-05-21T01:48:19.011Z,0
2018-05-21T01:49:18.781Z,0
2018-05-21T01:50:18.558Z,0
2018-05-21T01:51:18.587Z,0
2018-05-21T01:52:18.857Z,0
2018-05-21T01:53:18.883Z,0
2018-05-21T01:54:18.896Z,0
2018-05-21T01:55:18.664Z,0
2018-05-21T01:56:19.198Z,0
2018-05-21T01:57:19.213Z,0
2018-05-21T01:58:19.029Z,0
2018-05-21T01:59:18.743Z,0
2018-05-21T02:00:18.768Z,0
2018-05-21T02:01:19.285Z,0
2018-05-21T02:02:19.046Z,0
2018-05-21T02:03:19.323Z,0
2018-05-21T02:04:18.831Z,0
2018-05-21T02:05:19.116Z,0
2018-05-21T02:06:19.153Z,0
2018-05-21T02:07:19.155Z,0
2018-05-21T02:08:19.073Z,0
2018-05-21T02:09:19.193Z,0
2018-05-21T02:10:19.486Z,0
2018-05-21T02:11:19.245Z,0
2018-05-21T02:12:19.259Z,0
2018-05-21T02:13:19.359Z,0
2018-05-21T02:14:19.584Z,0
2018-05-21T02:15:19.350Z,0
2018-05-21T02:16:18.861Z,0
2018-05-21T02:17:19.137Z,0
2018-05-21T02:18:19.672Z,0
2018-05-21T02:19:19.691Z,0
2018-05-21T02:20:19.462Z,0
2018-05-21T02:21:19.744Z,0
2018-05-21T02:22:19.516Z,0
2018-05-21T02:23:19.528Z,0
2018-05-21T02:24:19.543Z,0
2018-05-21T02:25:19.823Z,0
2018-05-21T02:26:19.587Z,0
2018-05-21T02:27:19.604Z,0
2018-05-21T02:28:19.675Z,0
2018-05-21T02:29:19.903Z,0
2018-05-21T02:30:19.438Z,0
2018-05-21T02:31:20.050Z,0
2018-05-21T02:32:19.969Z,0
2018-05-21T02:33:19.749Z,0
2018-05-21T02:34:19.766Z,0
2018-05-21T02:35:20.044Z,0
2018-05-21T02:36:19.304Z,0
2018-05-21T02:37:19.577Z,0
2018-05-21T02:38:19.696Z,0
2018-05-21T02:39:20.125Z,0
2018-05-21T02:40:20.136Z,0
2018-05-21T02:41:19.908Z,0
2018-05-21T02:42:20.198Z,0
2018-05-21T02:43:20.280Z,0
2018-05-21T02:44:20.226Z,0
2018-05-21T02:45:20.230Z,0
2018-05-21T02:46:20.254Z,0
2018-05-21T02:47:20.032Z,0
2018-05-21T02:48:19.797Z,0
2018-05-21T02:49:20.075Z,0
2018-05-21T02:50:20.149Z,0
2018-05-21T02:51:20.371Z,0
2018-05-21T02:52:20.393Z,0
2018-05-21T02:53:20.211Z,0
2018-05-21T02:54:20.442Z,0
2018-05-21T02:55:20.206Z,0
2018-05-21T02:56:19.974Z,0
2018-05-21T02:57:20.011Z,0
2018-05-21T02:58:20.566Z,0
2018-05-21T02:59:20.301Z,0
2018-05-21T03:00:20.316Z,0
2018-05-21T03:01:20.409Z,0
2018-05-21T03:02:20.367Z,0
2018-05-21T03:03:20.693Z,0
2018-05-21T03:04:20.668Z,0
2018-05-21T03:05:20.177Z,0
2018-05-21T03:06:20.445Z,0
2018-05-21T03:07:20.467Z,0
2018-05-21T03:08:20.741Z,0
2018-05-21T03:09:20.516Z,0
2018-05-21T03:10:20.539Z,0
2018-05-21T03:11:20.551Z,0
2018-05-21T03:12:20.831Z,0
2018-05-21T03:13:20.337Z,0
2018-05-21T03:14:20.868Z,0
2018-05-21T03:15:20.890Z,0
2018-05-21T03:16:20.667Z,0
2018-05-21T03:17:20.391Z,0
2018-05-21T03:18:20.755Z,0
2018-05-21T03:19:20.936Z,0
2018-05-21T03:20:20.710Z,0
2018-05-21T03:21:20.727Z,0
2018-05-21T03:22:20.746Z,0
2018-05-21T03:23:21.101Z,5
2018-05-21T03:24:21.039Z,5
2018-05-21T03:25:20.850Z,5
2018-05-21T03:26:21.122Z,5
2018-05-21T03:27:20.891Z,5
2018-05-21T03:28:20.667Z,5
2018-05-21T03:29:20.909Z,5
2018-05-21T03:30:21.191Z,5
2018-05-21T03:31:21.233Z,10
2018-05-21T03:32:21.228Z,10
2018-05-21T03:33:21.056Z,10
2018-05-21T03:34:21.288Z,10
2018-05-21T03:35:21.078Z,10
2018-05-21T03:36:21.080Z,10
2018-05-21T03:37:21.358Z,15
2018-05-21T03:38:21.125Z,15
2018-05-21T03:39:20.888Z,15
2018-05-21T03:40:21.170Z,15
2018-05-21T03:41:21.504Z,20
2018-05-21T03:42:21.211Z,20
2018-05-21T03:43:21.491Z,20
2018-05-21T03:44:21.016Z,20
2018-05-21T03:45:21.273Z,20
2018-05-21T03:46:21.039Z,25
2018-05-21T03:47:21.569Z,25
2018-05-21T03:48:21.643Z,25
2018-05-21T03:49:21.609Z,25
2018-05-21T03:50:21.379Z,30
2018-05-21T03:51:21.654Z,30
2018-05-21T03:52:21.663Z,30
2018-05-21T03:53:21.683Z,30
2018-05-21T03:54:21.199Z,35
2018-05-21T03:55:21.228Z,35
2018-05-21T03:56:21.506Z,35
2018-05-21T03:57:21.789Z,35
2018-05-21T03:58:21.543Z,40
2018-05-21T03:59:21.312Z,40
2018-05-21T04:00:21.634Z,40
2018-05-21T04:01:21.861Z,45
2018-05-21T04:02:21.888Z,45
2018-05-21T04:03:21.701Z,45
2018-05-21T04:04:21.686Z,45
2018-05-21T04:05:21.689Z,50
2018-05-21T04:06:21.717Z,50
2018-05-21T04:07:21.982Z,50
2018-05-21T04:08:21.501Z,55
2018-05-21T04:09:22.029Z,55
2018-05-21T04:10:21.793Z,55
2018-05-21T04:11:22.080Z,55
2018-05-21T04:12:22.097Z,60
2018-05-21T04:13:21.865Z,60
2018-05-21T04:14:21.893Z,60
2018-05-21T04:15:22.172Z,65
2018-05-21T04:16:21.927Z,65
2018-05-21T04:17:22.208Z,65
2018-05-21T04:18:22.294Z,65
2018-05-21T04:19:21.989Z,70
2018-05-21T04:20:22.329Z,70
2018-05-21T04:21:22.289Z,70
2018-05-21T04:22:22.055Z,75
2018-05-21T04:23:22.079Z,75
2018-05-21T04:24:22.093Z,75
2018-05-21T04:25:22.100Z,75
2018-05-21T04:26:22.209Z,80
2018-05-21T04:27:22.400Z,80
2018-05-21T04:28:21.912Z,80
2018-05-21T04:29:21.950Z,80
2018-05-21T04:30:21.958Z,85
2018-05-21T04:31:21.974Z,85
2018-05-21T04:32:22.530Z,85
2018-05-21T04:33:22.327Z,85
2018-05-21T04:34:22.556Z,90
2018-05-21T04:35:22.321Z,90
2018-05-21T04:36:22.507Z,90
2018-05-21T04:37:22.612Z,90
2018-05-21T04:38:22.380Z,95
2018-05-21T04:39:22.403Z,95
2018-05-21T04:40:22.679Z,95
2018-05-21T04:41:22.714Z,95
2018-05-21T04:42:22.740Z,100
2018-05-21T04:43:22.765Z,100
2018-05-21T04:44:22.537Z,100
2018-05-21T04:45:22.305Z,100
2018-05-21T04:46:22.580Z,105
2018-05-21T04:47:22.848Z,105
2018-05-21T04:48:22.915Z,105
2018-05-21T04:49:22.902Z,110
2018-05-21T04:50:22.901Z,110
2018-05-21T04:51:22.671Z,110
2018-05-21T04:52:22.947Z,110
2018-05-21T04:53:22.717Z,110
2018-05-21T04:54:22.741Z,115
2018-05-21T04:55:23.010Z,115
2018-05-21T04:56:23.043Z,115
2018-05-21T04:57:23.054Z,120
2018-05-21T04:58:23.077Z,120
2018-05-21T04:59:23.136Z,120
2018-05-21T05:00:22.868Z,120
2018-05-21T05:01:22.902Z,120
2018-05-21T05:02:23.165Z,125
2018-05-21T05:03:22.732Z,125
2018-05-21T05:04:23.218Z,125
2018-05-21T05:05:22.982Z,125
2018-05-21T05:06:23.001Z,125
2018-05-21T05:07:23.015Z,125
2018-05-21T05:08:23.315Z,125
2018-05-21T05:09:23.312Z,125
2018-05-21T05:10:23.320Z,130
2018-05-21T05:11:23.347Z,130
2018-05-21T05:12:23.403Z,130
2018-05-21T05:13:23.403Z,130
2018-05-21T05:14:23.431Z,135
2018-05-21T05:15:22.955Z,135
2018-05-21T05:16:23.218Z,135
2018-05-21T05:17:23.487Z,135
2018-05-21T05:18:23.050Z,140
2018-05-21T05:19:23.291Z,140
2018-05-21T05:20:23.288Z,140
2018-05-21T05:21:23.573Z,140
2018-05-21T05:22:23.589Z,140
2018-05-21T05:23:23.612Z,145
2018-05-21T05:24:23.398Z,145
2018-05-21T05:25:23.408Z,145
2018-05-21T05:26:23.173Z,145
2018-05-21T05:27:23.457Z,145
2018-05-21T05:28:23.471Z,150
2018-05-21T05:29:23.490Z,150
2018-05-21T05:30:23.754Z,150
2018-05-21T05:31:23.506Z,150
2018-05-21T05:32:23.539Z,150
2018-05-21T05:33:23.853Z,155
2018-05-21T05:34:23.827Z,155
2018-05-21T05:35:23.344Z,155
2018-05-21T05:36:23.871Z,155
2018-05-21T05:37:23.674Z,155
2018-05-21T05:38:23.957Z,155
2018-05-21T05:39:23.727Z,160
2018-05-21T05:40:23.732Z,160
2018-05-21T05:41:23.501Z,160
2018-05-21T05:42:23.583Z,160
2018-05-21T05:43:23.771Z,160
2018-05-21T05:44:23.793Z,165
2018-05-21T05:45:23.613Z,165
2018-05-21T05:46:23.833Z,165
2018-05-21T05:47:23.867Z,165
2018-05-21T05:48:23.929Z,165
2018-05-21T05:49:23.896Z,165
2018-05-21T05:50:23.915Z,165
2018-05-21T05:51:23.938Z,170
2018-05-21T05:52:24.214Z,170
2018-05-21T05:53:24.239Z,170
2018-05-21T05:54:24.294Z,170
2018-05-21T05:55:24.328Z,170
2018-05-21T05:56:24.344Z,175
2018-05-21T05:57:24.116Z,175
2018-05-21T05:58:24.386Z,175
2018-05-21T05:59:24.405Z,175
2018-05-21T06:00:24.431Z,175
2018-05-21T06:01:24.454Z,175
2018-05-21T06:02:24.231Z,180
2018-05-21T06:03:24.555Z,180
2018-05-21T06:04:24.515Z,180
2018-05-21T06:05:24.542Z,180
2018-05-21T06:06:24.325Z,180
2018-05-21T06:07:24.329Z,180
2018-05-21T06:08:24.601Z,185
2018-05-21T06:09:24.639Z,185
2018-05-21T06:10:24.145Z,185
2018-05-21T06:11:24.676Z,185
2018-05-21T06:12:24.189Z,185
2018-05-21T06:13:24.461Z,185
2018-05-21T06:14:23.976Z,185
2018-05-21T06:15:24.760Z,190
2018-05-21T06:16:24.526Z,190
2018-05-21T06:17:24.801Z,190
2018-05-21T06:18:24.372Z,195
2018-05-21T06:19:24.851Z,195
2018-05-21T06:20:24.618Z,195
2018-05-21T06:21:24.382Z,195
2018-05-21T06:22:24.505Z,195
2018-05-21T06:23:24.937Z,195
2018-05-21T06:24:24.198Z,195
2018-05-21T06:25:25.065Z,195
2018-05-21T06:26:25.020Z,195
2018-05-21T06:27:25.040Z,200
2018-05-21T06:28:24.809Z,200
2018-05-21T06:29:25.098Z,200
2018-05-21T06:30:25.102Z,200
2018-05-21T06:31:24.872Z,200
2018-05-21T06:32:24.895Z,200
2018-05-21T06:33:24.978Z,205
2018-05-21T06:34:25.939Z,205
2018-05-21T06:35:24.707Z,205
2018-05-21T06:36:25.331Z,205
2018-05-21T06:37:25.268Z,205
2018-05-21T06:38:25.383Z,205
2018-05-21T06:39:25.076Z,210
2018-05-21T06:40:25.340Z,210
2018-05-21T06:41:25.451Z,210
2018-05-21T06:42:25.380Z,205
2018-05-21T06:43:25.156Z,205
2018-05-21T06:44:25.223Z,210
2018-05-21T06:45:25.193Z,210
2018-05-21T06:46:25.472Z,210
2018-05-21T06:47:25.498Z,210
2018-05-21T06:48:25.265Z,210
2018-05-21T06:49:25.288Z,210
2018-05-21T06:50:25.055Z,215
2018-05-21T06:51:25.340Z,215
2018-05-21T06:52:25.633Z,215
2018-05-21T06:53:25.629Z,215
2018-05-21T06:54:25.399Z,215
2018-05-21T06:55:25.675Z,215
2018-05-21T06:56:25.458Z,215
2018-05-21T06:57:25.754Z,215
2018-05-21T06:58:24.986Z,215
2018-05-21T06:59:25.313Z,215
2018-05-21T07:00:25.787Z,215
2018-05-21T07:01:25.662Z,215
2018-05-21T07:02:25.855Z,220
2018-05-21T07:03:25.871Z,220
2018-05-21T07:04:25.884Z,220
2018-05-21T07:05:25.908Z,220
2018-05-21T07:06:25.686Z,220
2018-05-21T07:07:25.725Z,220
2018-05-21T07:08:25.740Z,220
2018-05-21T07:09:25.761Z,220
2018-05-21T07:10:25.785Z,220
2018-05-21T07:11:25.822Z,225
2018-05-21T07:12:25.845Z,220
2018-05-21T07:13:26.099Z,220
2018-05-21T07:14:26.175Z,220
2018-05-21T07:15:25.899Z,220
2018-05-21T07:16:26.187Z,220
2018-05-21T07:17:25.690Z,225
2018-05-21T07:18:26.503Z,225
2018-05-21T07:19:26.248Z,225
2018-05-21T07:20:26.017Z,225
2018-05-21T07:21:26.290Z,225
2018-05-21T07:22:26.072Z,225
2018-05-21T07:23:26.081Z,225
2018-05-21T07:24:26.596Z,225
2018-05-21T07:25:26.389Z,225
2018-05-21T07:26:26.424Z,230
2018-05-21T07:27:25.929Z,230
2018-05-21T07:28:26.212Z,235
2018-05-21T07:29:27.478Z,235
2018-05-21T07:30:26.523Z,230
2018-05-21T07:31:26.307Z,230
2018-05-21T07:32:26.329Z,230
2018-05-21T07:33:26.337Z,230
2018-05-21T07:34:26.358Z,230
2018-05-21T07:35:26.598Z,230
2018-05-21T07:36:26.204Z,230
2018-05-21T07:37:26.649Z,235
2018-05-21T07:38:26.418Z,230
2018-05-21T07:39:26.193Z,230
2018-05-21T07:40:26.746Z,230
2018-05-21T07:41:26.497Z,230
2018-05-21T07:42:26.770Z,235
2018-05-21T07:43:26.798Z,235
2018-05-21T07:44:26.367Z,235
2018-05-21T07:45:26.840Z,235
2018-05-21T07:46:26.869Z,240
2018-05-21T07:47:26.390Z,235
2018-05-21T07:48:26.685Z,240
2018-05-21T07:49:26.943Z,240
2018-05-21T07:50:26.487Z,240
2018-05-21T07:51:27.464Z,240
2018-05-21T07:52:26.798Z,240
2018-05-21T07:53:26.817Z,240
2018-05-21T07:54:26.851Z,240
2018-05-21T07:55:26.871Z,240
2018-05-21T07:56:26.876Z,245
2018-05-21T07:57:27.175Z,245
2018-05-21T07:58:27.149Z,245
2018-05-21T07:59:27.013Z,245
2018-05-21T08:00:27.237Z,245
2018-05-21T08:01:27.008Z,245
2018-05-21T08:02:27.033Z,245
2018-05-21T08:03:27.061Z,250
2018-05-21T08:04:27.082Z,250
2018-05-21T08:05:27.367Z,250
2018-05-21T08:06:27.143Z,250
2018-05-21T08:07:27.151Z,250
2018-05-21T08:08:27.203Z,250
2018-05-21T08:09:27.453Z,250
2018-05-21T08:10:27.470Z,255
2018-05-21T08:11:27.240Z,255
2018-05-21T08:12:27.270Z,255
2018-05-21T08:13:27.295Z,260
2018-05-21T08:14:27.813Z,260
2018-05-21T08:15:27.620Z,260
2018-05-21T08:16:27.390Z,265
2018-05-21T08:17:27.407Z,270
2018-05-21T08:18:27.162Z,270
2018-05-21T08:19:27.761Z,270
2018-05-21T08:20:27.473Z,270
2018-05-21T08:21:27.243Z,270
2018-05-21T08:22:27.288Z,275
2018-05-21T08:23:27.638Z,275
2018-05-21T08:24:28.129Z,275
2018-05-21T08:25:27.600Z,275
2018-05-21T08:26:27.868Z,275
2018-05-21T08:27:27.958Z,280
2018-05-21T08:28:27.691Z,280
2018-05-21T08:29:27.618Z,280
2018-05-21T08:30:27.983Z,280
2018-05-21T08:31:28.017Z,280
2018-05-21T08:32:27.775Z,280
2018-05-21T08:33:28.079Z,285
2018-05-21T08:34:28.193Z,285
2018-05-21T08:35:27.865Z,285
2018-05-21T08:36:28.135Z,285
2018-05-21T08:37:27.927Z,285
2018-05-21T08:38:27.690Z,290
2018-05-21T08:39:27.951Z,290
2018-05-21T08:40:28.254Z,290
2018-05-21T08:41:28.267Z,290
2018-05-21T08:42:28.037Z,290
2018-05-21T08:43:28.064Z,295
2018-05-21T08:44:28.384Z,295
2018-05-21T08:45:28.111Z,295
2018-05-21T08:46:28.244Z,295
2018-05-21T08:47:28.420Z,300
2018-05-21T08:48:28.340Z,300
2018-05-21T08:49:28.466Z,300
2018-05-21T08:50:28.489Z,300
2018-05-21T08:51:28.255Z,300
2018-05-21T08:52:28.858Z,300
2018-05-21T08:53:28.313Z,305
2018-05-21T08:54:28.597Z,305
2018-05-21T08:55:28.728Z,310
2018-05-21T08:56:28.758Z,305
2018-05-21T08:57:28.681Z,305
2018-05-21T08:58:28.441Z,305
2018-05-21T08:59:28.535Z,305
2018-05-21T09:00:29.054Z,310
2018-05-21T09:01:28.522Z,310
2018-05-21T09:02:28.801Z,315
2018-05-21T09:03:28.580Z,310
2018-05-21T09:04:28.604Z,315
2018-05-21T09:05:28.624Z,315
2018-05-21T09:06:28.912Z,315
2018-05-21T09:07:28.937Z,315
2018-05-21T09:08:28.969Z,315
2018-05-21T09:09:28.755Z,315
2018-05-21T09:10:29.014Z,315
2018-05-21T09:11:29.032Z,320
2018-05-21T09:12:29.381Z,320
2018-05-21T09:13:29.120Z,320
2018-05-21T09:14:28.655Z,320
2018-05-21T09:15:28.892Z,320
2018-05-21T09:16:29.433Z,325
2018-05-21T09:17:28.937Z,325
2018-05-21T09:18:28.971Z,325
2018-05-21T09:19:28.994Z,325
2018-05-21T09:20:29.272Z,325
2018-05-21T09:21:29.023Z,325
2018-05-21T09:22:29.052Z,330
2018-05-21T09:23:28.821Z,330
2018-05-21T09:24:28.604Z,335
2018-05-21T09:25:29.384Z,330
2018-05-21T09:26:28.901Z,330
2018-05-21T09:27:28.933Z,330
2018-05-21T09:28:29.217Z,330
2018-05-21T09:29:29.288Z,335
2018-05-21T09:30:29.257Z,335
2018-05-21T09:31:29.961Z,335
2018-05-21T09:32:29.965Z,340
2018-05-21T09:33:29.362Z,340
2018-05-21T09:34:29.143Z,340
2018-05-21T09:35:29.421Z,360
2018-05-21T09:36:28.699Z,385
2018-05-21T09:37:29.472Z,400
2018-05-21T09:38:29.514Z,395
2018-05-21T09:39:29.784Z,395
2018-05-21T09:40:29.570Z,395
2018-05-21T09:41:29.329Z,400
2018-05-21T09:42:29.093Z,400
2018-05-21T09:43:29.367Z,400
2018-05-21T09:44:29.713Z,400
2018-05-21T09:45:29.950Z,405
2018-05-21T09:46:29.720Z,405
2018-05-21T09:47:29.747Z,405
2018-05-21T09:48:29.264Z,405
2018-05-21T09:49:29.804Z,410
2018-05-21T09:50:30.085Z,410
2018-05-21T09:51:30.117Z,410
2018-05-21T09:52:30.136Z,415
2018-05-21T09:53:30.193Z,415
2018-05-21T09:54:30.243Z,415
2018-05-21T09:55:29.967Z,415
2018-05-21T09:56:29.997Z,420
2018-05-21T09:57:30.287Z,420
2018-05-21T09:58:29.796Z,425
2018-05-21T09:59:30.135Z,425
2018-05-21T10:00:30.373Z,430
2018-05-21T10:01:30.413Z,425
2018-05-21T10:02:30.431Z,425
2018-05-21T10:03:30.457Z,430
2018-05-21T10:04:30.286Z,430
2018-05-21T10:05:30.514Z,430
2018-05-21T10:06:30.036Z,430
2018-05-21T10:07:30.070Z,435
2018-05-21T10:08:30.597Z,435
2018-05-21T10:09:30.124Z,435
2018-05-21T10:10:30.671Z,440
2018-05-21T10:11:30.450Z,445
2018-05-21T10:12:30.740Z,445
2018-05-21T10:13:30.767Z,445
2018-05-21T10:14:30.869Z,445
2018-05-21T10:15:30.590Z,450
2018-05-21T10:16:30.868Z,450
2018-05-21T10:17:30.913Z,455
2018-05-21T10:18:30.676Z,455
2018-05-21T10:19:31.372Z,455
2018-05-21T10:20:30.746Z,455
2018-05-21T10:21:31.024Z,460
2018-05-21T10:22:30.804Z,465
2018-05-21T10:23:31.116Z,465
2018-05-21T10:24:30.629Z,460
2018-05-21T10:25:30.896Z,460
2018-05-21T10:26:31.215Z,465
2018-05-21T10:27:30.962Z,465
2018-05-21T10:28:31.252Z,470
2018-05-21T10:29:30.829Z,465
2018-05-21T10:30:31.314Z,465
2018-05-21T10:31:31.365Z,465
2018-05-21T10:32:30.874Z,470
2018-05-21T10:33:31.411Z,480
2018-05-21T10:34:30.935Z,475
2018-05-21T10:35:31.227Z,480
2018-05-21T10:36:31.512Z,480
2018-05-21T10:37:31.244Z,480
2018-05-21T10:38:31.574Z,485
2018-05-21T10:39:31.613Z,485
2018-05-21T10:40:31.387Z,485
2018-05-21T10:41:31.418Z,490
2018-05-21T10:42:31.199Z,495
2018-05-21T10:43:31.486Z,495
2018-05-21T10:44:31.595Z,495
2018-05-21T10:45:31.050Z,495
2018-05-21T10:46:31.341Z,495
2018-05-21T10:47:31.370Z,500
2018-05-21T10:48:31.407Z,505
2018-05-21T10:49:32.023Z,505
2018-05-21T10:50:31.989Z,500
2018-05-21T10:51:32.300Z,510
2018-05-21T10:52:31.286Z,505
2018-05-21T10:53:31.565Z,510
2018-05-21T10:54:32.291Z,510
2018-05-21T10:55:31.635Z,510
2018-05-21T10:56:32.138Z,520
2018-05-21T10:57:32.057Z,525
2018-05-21T10:58:32.319Z,530
2018-05-21T10:59:31.557Z,540
2018-05-21T11:00:32.315Z,540
2018-05-21T11:01:32.283Z,540
2018-05-21T11:02:32.396Z,540
2018-05-21T11:03:32.157Z,545
2018-05-21T11:04:32.229Z,555
2018-05-21T11:05:32.227Z,555
2018-05-21T11:06:32.255Z,560
2018-05-21T11:07:32.555Z,570
2018-05-21T11:08:32.620Z,565
2018-05-21T11:09:32.113Z,565
2018-05-21T11:10:32.394Z,570
2018-05-21T11:11:32.175Z,575
2018-05-21T11:12:32.748Z,585
2018-05-21T11:13:32.551Z,595
2018-05-21T11:14:32.874Z,595
2018-05-21T11:15:32.311Z,605
2018-05-21T11:16:32.600Z,610
2018-05-21T11:17:32.891Z,625
2018-05-21T11:18:32.919Z,630
2018-05-21T11:19:32.705Z,640
2018-05-21T11:20:32.229Z,630
2018-05-21T11:21:32.778Z,630
2018-05-21T11:22:33.065Z,620
2018-05-21T11:23:32.859Z,620
2018-05-21T11:24:32.647Z,625
2018-05-21T11:25:32.661Z,630
2018-05-21T11:26:32.948Z,640
2018-05-21T11:27:33.244Z,650
2018-05-21T11:28:32.783Z,660
2018-05-21T11:29:33.462Z,665
2018-05-21T11:30:33.081Z,675
2018-05-21T11:31:33.126Z,680
2018-05-21T11:32:33.399Z,680
2018-05-21T11:33:33.440Z,675
2018-05-21T11:34:33.323Z,685
2018-05-21T11:35:33.267Z,685
2018-05-21T11:36:33.554Z,690
2018-05-21T11:37:33.070Z,705
2018-05-21T11:38:33.621Z,720
2018-05-21T11:39:33.403Z,730
2018-05-21T11:40:33.733Z,755
2018-05-21T11:41:33.736Z,775
2018-05-21T11:42:33.253Z,785
2018-05-21T11:43:33.544Z,800
2018-05-21T11:44:33.382Z,835
2018-05-21T11:45:33.618Z,900
2018-05-21T11:46:34.172Z,945
2018-05-21T11:47:33.645Z,950
2018-05-21T11:48:33.716Z,890
2018-05-21T11:49:34.009Z,850
2018-05-21T11:50:34.073Z,830
2018-05-21T11:51:34.086Z,845
2018-05-21T11:52:34.227Z,880
2018-05-21T11:53:33.905Z,930
2018-05-21T11:54:33.927Z,965
2018-05-21T11:55:33.976Z,1020
2018-05-21T11:56:34.266Z,1050
2018-05-21T11:57:34.044Z,1045
2018-05-21T11:58:34.081Z,1005
2018-05-21T11:59:34.183Z,950
2018-05-21T12:00:34.401Z,905
2018-05-21T12:01:34.455Z,885
2018-05-21T12:02:34.313Z,855
2018-05-21T12:03:34.510Z,835
2018-05-21T12:04:34.301Z,820
2018-05-21T12:05:34.584Z,835
2018-05-21T12:06:34.616Z,830
2018-05-21T12:07:34.511Z,850
2018-05-21T12:08:34.191Z,885
2018-05-21T12:09:34.469Z,980
2018-05-21T12:10:34.507Z,1065
2018-05-21T12:11:34.839Z,1150
2018-05-21T12:12:34.838Z,1275
2018-05-21T12:13:34.750Z,1370
2018-05-21T12:14:35.063Z,1400
2018-05-21T12:15:34.691Z,1450
2018-05-21T12:16:34.801Z,1395
2018-05-21T12:17:34.767Z,1395
2018-05-21T12:18:34.812Z,1500
2018-05-21T12:19:35.061Z,1705
2018-05-21T12:20:35.097Z,1685
2018-05-21T12:21:34.642Z,1700
2018-05-21T12:22:35.132Z,1195
2018-05-21T12:23:34.961Z,1680
2018-05-21T12:24:35.252Z,1765
2018-05-21T12:25:35.287Z,1840
2018-05-21T12:26:35.321Z,1795
2018-05-21T12:27:35.100Z,1795
2018-05-21T12:28:35.238Z,575
2018-05-21T12:29:35.505Z,565
2018-05-21T12:30:35.493Z,505
2018-05-21T12:31:35.506Z,450
2018-05-21T12:32:35.299Z,405
2018-05-21T12:33:35.336Z,395
2018-05-21T12:34:35.651Z,395
2018-05-21T12:35:35.423Z,390
2018-05-21T12:36:35.711Z,405
2018-05-21T12:37:35.815Z,440
2018-05-21T12:38:35.527Z,475
2018-05-21T12:39:35.568Z,845
2018-05-21T12:40:35.858Z,1550
2018-05-21T12:41:35.637Z,570
2018-05-21T12:42:35.915Z,835
2018-05-21T12:43:35.950Z,2145
2018-05-21T12:44:35.531Z,2020
2018-05-21T12:45:36.039Z,2015
2018-05-21T12:46:35.803Z,2020
2018-05-21T12:47:35.585Z,915
2018-05-21T12:48:35.610Z,925
2018-05-21T12:49:35.903Z,1735
2018-05-21T12:50:35.939Z,2030
2018-05-21T12:51:36.235Z,1850
2018-05-21T12:52:36.260Z,1975
2018-05-21T12:53:36.049Z,2225
2018-05-21T12:54:36.466Z,2215
2018-05-21T12:55:35.897Z,2405
2018-05-21T12:56:36.412Z,2240
2018-05-21T12:57:36.199Z,2155
2018-05-21T12:58:36.222Z,580
2018-05-21T12:59:36.569Z,565
2018-05-21T13:00:36.544Z,645
2018-05-21T13:01:36.333Z,1045
2018-05-21T13:02:36.613Z,1660
2018-05-21T13:03:36.392Z,1875
2018-05-21T13:04:36.683Z,1935
2018-05-21T13:05:36.226Z,1845
2018-05-21T13:06:36.515Z,1810
2018-05-21T13:07:36.803Z,1730
2018-05-21T13:08:36.580Z,1645
2018-05-21T13:09:36.920Z,1610
2018-05-21T13:10:36.986Z,1525
2018-05-21T13:11:36.690Z,1485
2018-05-21T13:12:36.722Z,1420
2018-05-21T13:13:36.764Z,1135
2018-05-21T13:14:37.052Z,900
2018-05-21T13:15:36.914Z,915
2018-05-21T13:16:37.127Z,670
2018-05-21T13:17:36.906Z,1580
2018-05-21T13:18:37.202Z,770
2018-05-21T13:19:37.013Z,730
2018-05-21T13:20:37.270Z,590
2018-05-21T13:21:37.326Z,670
2018-05-21T13:22:37.092Z,580
2018-05-21T13:23:37.129Z,635
2018-05-21T13:24:37.459Z,1820
2018-05-21T13:25:37.196Z,525
2018-05-21T13:26:37.543Z,505
2018-05-21T13:27:37.526Z,535
2018-05-21T13:28:37.057Z,560
2018-05-21T13:29:37.636Z,615
2018-05-21T13:30:37.397Z,670
2018-05-21T13:31:37.498Z,990
2018-05-21T13:32:37.454Z,735
2018-05-21T13:33:37.739Z,2005
2018-05-21T13:34:37.917Z,1885
2018-05-21T13:35:37.801Z,1985
2018-05-21T13:36:37.588Z,2180
2018-05-21T13:37:37.614Z,2255
2018-05-21T13:38:37.644Z,2260
2018-05-21T13:39:37.990Z,2230
2018-05-21T13:40:37.982Z,2190
2018-05-21T13:41:37.977Z,2180
2018-05-21T13:42:38.016Z,2100
2018-05-21T13:43:37.801Z,1985
2018-05-21T13:44:37.845Z,2155
2018-05-21T13:45:38.124Z,2255
2018-05-21T13:46:37.912Z,2245
2018-05-21T13:47:37.456Z,2220
2018-05-21T13:48:38.230Z,2345
2018-05-21T13:49:38.279Z,2260
2018-05-21T13:50:38.054Z,2190
2018-05-21T13:51:38.356Z,2095
2018-05-21T13:52:38.104Z,2180
2018-05-21T13:53:38.455Z,2030
2018-05-21T13:54:38.540Z,1895
2018-05-21T13:55:38.521Z,1910
2018-05-21T13:56:38.568Z,2195
2018-05-21T13:57:38.592Z,2290
2018-05-21T13:58:38.125Z,2215
2018-05-21T13:59:38.219Z,1545
2018-05-21T14:00:38.205Z,625